FQMA

Maputo Airport

Maputo, Mozambique
METAR FQMA 211300Z 09009KT 9999 FEW025 25/12 Q1027 NOSIG
Observed Flight Rules
Jul-21 @ 13:00 UTC (46 minutes ago) Visual Flight Rules
Wind Visibility Clouds
90° at 9 knots 10,000+ meters
  • Few at 2,500' AGL
Temperatures Readings
Current 25°C / 77°F
Dewpoint 12°C / 54°F
Humidity 44%
Altimeter 30.32" Hg
Pressure 1027 hPa
Elevation 44
METAR FQMA 211300Z 09009KT 9999 FEW025 25/12 Q1027 NOSIG
Observed Flight Rules
Jul-21 @ 13:00 UTC
(46 minutes ago)
VFR
Wind Visibility
90° at 9 knots 10,000+ meters
Clouds
  • Few at 2,500' AGL
Temperature Dewpoint
25°C / 77°F 12°C / 54°F
Humidity Altimeter Pressure
44% 30.32" Hg 1027 hPa